createdAt,value
2023-04-21T00:02:01.695Z,100238.78
2023-04-21T00:04:29.134Z,100237.78
2023-04-21T00:06:56.297Z,100231.72
2023-04-21T00:09:23.337Z,100216.56
2023-04-21T00:11:50.404Z,100222.16
2023-04-21T00:14:17.992Z,100210.63
2023-04-21T00:16:45.376Z,100211.50
2023-04-21T00:19:14.357Z,100211.84
2023-04-21T00:21:41.520Z,100214.44
2023-04-21T00:24:08.928Z,100211.38
2023-04-21T00:26:35.917Z,100206.53
2023-04-21T00:29:03.258Z,100211.38
2023-04-21T00:31:32.040Z,100212.88
2023-04-21T00:33:59.244Z,100211.06
2023-04-21T00:36:28.388Z,100212.88
2023-04-21T00:38:55.629Z,100203.34
2023-04-21T00:41:23.771Z,100205.44
2023-04-21T00:44:05.074Z,100198.88
2023-04-21T00:46:33.547Z,100202.94
2023-04-21T00:49:03.848Z,100206.31
2023-04-21T00:51:33.245Z,100200.16
2023-04-21T00:54:02.645Z,100195.66
2023-04-21T00:56:32.659Z,100187.09
2023-04-21T00:59:02.284Z,100192.41
2023-04-21T01:01:31.314Z,100192.28
2023-04-21T01:04:01.024Z,100196.06
2023-04-21T01:06:37.062Z,100187.22
2023-04-21T01:09:05.266Z,100192.19
2023-04-21T01:11:32.727Z,100187.78
2023-04-21T01:14:00.751Z,100188.38
2023-04-21T01:16:28.084Z,100178.91
2023-04-21T01:18:55.737Z,100179.75
2023-04-21T01:21:23.855Z,100170.56
2023-04-21T01:23:51.393Z,100171.94
2023-04-21T01:26:19.687Z,100167.59
2023-04-21T01:28:48.773Z,100160.03
2023-04-21T01:31:17.109Z,100155.25
2023-04-21T01:33:44.963Z,100172.69
2023-04-21T01:36:12.425Z,100158.81
2023-04-21T01:38:40.996Z,100159.53
2023-04-21T01:41:08.822Z,100161.84
2023-04-21T01:43:36.109Z,100163.13
2023-04-21T01:46:05.232Z,100152.25
2023-04-21T01:48:32.365Z,100154.44
2023-04-21T01:50:59.530Z,100160.31
2023-04-21T01:53:27.154Z,100151.69
2023-04-21T01:55:54.248Z,100147.25
2023-04-21T01:58:22.054Z,100148.53
2023-04-21T02:00:49.292Z,100151.31
2023-04-21T02:03:16.675Z,100144.69
2023-04-21T02:05:46.250Z,100151.38
2023-04-21T02:08:13.299Z,100156.66
2023-04-21T02:10:41.602Z,100160.38
2023-04-21T02:13:12.174Z,100147.75
2023-04-21T02:15:39.517Z,100143.78
2023-04-21T02:18:08.425Z,100148.56
2023-04-21T02:20:35.745Z,100140.88
2023-04-21T02:23:02.930Z,100145.53
2023-04-21T02:25:30.905Z,100142.34
2023-04-21T02:27:58.003Z,100145.28
2023-04-21T02:30:28.083Z,100136.22
2023-04-21T02:32:55.211Z,100136.47
2023-04-21T02:35:22.439Z,100139.41
2023-04-21T02:37:50.988Z,100142.41
2023-04-21T02:40:18.226Z,100135.75
2023-04-21T02:42:45.570Z,100137.00
2023-04-21T02:45:12.717Z,100130.06
2023-04-21T02:47:39.813Z,100133.78
2023-04-21T02:50:07.296Z,100126.69
2023-04-21T02:52:38.297Z,100118.97
2023-04-21T02:55:05.969Z,100116.28
2023-04-21T02:57:33.053Z,100125.84
2023-04-21T03:00:00.574Z,100123.03
2023-04-21T03:02:27.936Z,100121.25
2023-04-21T03:04:55.112Z,100122.56
2023-04-21T03:07:22.340Z,100125.50
2023-04-21T03:09:49.453Z,100117.38
2023-04-21T03:12:16.570Z,100124.56
2023-04-21T03:14:44.741Z,100125.09
2023-04-21T03:17:12.012Z,100122.63
2023-04-21T03:19:39.225Z,100129.25
2023-04-21T03:22:06.826Z,100130.47
2023-04-21T03:24:34.148Z,100133.97
2023-04-21T03:27:02.694Z,100135.47
2023-04-21T03:29:29.775Z,100137.34
2023-04-21T03:31:56.907Z,100137.59
2023-04-21T03:34:25.290Z,100141.44
2023-04-21T03:36:52.491Z,100133.88
2023-04-21T03:39:20.346Z,100135.34
2023-04-21T03:41:49.393Z,100126.56
2023-04-21T03:44:16.554Z,100124.41
2023-04-21T03:46:43.605Z,100137.00
2023-04-21T03:49:10.689Z,100128.03
2023-04-21T03:51:37.744Z,100130.09
2023-04-21T03:54:04.795Z,100133.66
2023-04-21T03:56:31.887Z,100132.69
2023-04-21T03:58:59.017Z,100134.75
2023-04-21T04:01:26.095Z,100132.44
2023-04-21T04:03:53.393Z,100144.00
2023-04-21T04:06:20.596Z,100148.66
2023-04-21T04:08:47.608Z,100152.06
2023-04-21T04:11:14.699Z,100152.31
2023-04-21T04:13:41.861Z,100151.19
2023-04-21T04:16:09.047Z,100160.56
2023-04-21T04:18:36.460Z,100162.56
2023-04-21T04:21:10.209Z,100166.41
2023-04-21T04:23:37.825Z,100169.69
2023-04-21T04:26:05.753Z,100162.34
2023-04-21T04:28:33.861Z,100165.97
2023-04-21T04:31:01.059Z,100169.53
2023-04-21T04:33:28.214Z,100179.06
2023-04-21T04:35:55.396Z,100167.34
2023-04-21T04:38:23.253Z,100184.03
2023-04-21T04:40:55.139Z,100183.97
2023-04-21T04:43:22.225Z,100179.34
2023-04-21T04:45:49.381Z,100173.03
2023-04-21T04:48:16.728Z,100177.53
2023-04-21T04:50:50.727Z,100173.84
2023-04-21T04:53:18.449Z,100181.13
2023-04-21T04:55:46.329Z,100178.19
2023-04-21T04:58:13.916Z,100176.06
2023-04-21T05:00:41.104Z,100183.25
2023-04-21T05:03:08.299Z,100182.00
2023-04-21T05:05:35.825Z,100184.69
2023-04-21T05:08:02.941Z,100182.97
2023-04-21T05:10:30.093Z,100186.28
2023-04-21T05:12:57.180Z,100186.75
2023-04-21T05:15:24.415Z,100182.22
2023-04-21T05:17:51.561Z,100180.97
2023-04-21T05:20:18.672Z,100181.59
2023-04-21T05:22:45.970Z,100188.00
2023-04-21T05:25:16.238Z,100185.41
2023-04-21T05:27:43.712Z,100184.06
2023-04-21T05:30:11.259Z,100180.47
2023-04-21T05:32:38.523Z,100184.13
2023-04-21T05:35:06.458Z,100178.06
2023-04-21T05:37:33.694Z,100182.69
2023-04-21T05:40:00.906Z,100182.06
2023-04-21T05:42:28.034Z,100176.91
2023-04-21T05:44:55.403Z,100177.31
2023-04-21T05:47:22.565Z,100175.56
2023-04-21T05:49:53.833Z,100177.44
2023-04-21T05:52:23.983Z,100173.72
2023-04-21T05:54:51.104Z,100169.19
2023-04-21T05:57:18.238Z,100170.22
2023-04-21T05:59:45.373Z,100167.66
2023-04-21T06:02:12.850Z,100175.16
2023-04-21T06:04:40.319Z,100172.94
2023-04-21T06:07:10.576Z,100175.41
2023-04-21T06:09:38.504Z,100183.53
2023-04-21T06:12:06.347Z,100182.13
2023-04-21T06:14:33.370Z,100192.72
2023-04-21T06:17:00.424Z,100197.78
2023-04-21T06:19:27.593Z,100205.16
2023-04-21T06:21:54.518Z,100221.59
2023-04-21T06:24:25.571Z,100223.25
2023-04-21T06:26:53.563Z,100237.66
2023-04-21T06:29:21.131Z,100243.78
2023-04-21T06:31:48.381Z,100232.88
2023-04-21T06:34:16.009Z,100233.28
2023-04-21T06:36:43.035Z,100227.09
2023-04-21T06:39:10.028Z,100237.06
2023-04-21T06:41:37.124Z,100239.97
2023-04-21T06:44:04.239Z,100244.06
2023-04-21T06:46:31.541Z,100249.44
2023-04-21T06:48:58.685Z,100246.81
2023-04-21T06:51:25.743Z,100248.09
2023-04-21T06:53:52.759Z,100246.16
2023-04-21T06:56:19.757Z,100245.25
2023-04-21T06:58:47.237Z,100253.13
2023-04-21T07:01:14.272Z,100250.44
2023-04-21T07:03:41.604Z,100241.78
2023-04-21T07:06:08.883Z,100248.97
2023-04-21T07:08:36.027Z,100254.84
2023-04-21T07:11:03.108Z,100247.66
2023-04-21T07:13:30.493Z,100239.84
2023-04-21T07:15:57.647Z,100246.47
2023-04-21T07:18:24.634Z,100248.47
2023-04-21T07:20:51.703Z,100246.75
2023-04-21T07:23:19.233Z,100234.13
2023-04-21T07:25:46.351Z,100224.63
2023-04-21T07:28:15.299Z,100233.72
2023-04-21T07:30:42.458Z,100238.03
2023-04-21T07:33:09.565Z,100236.44
2023-04-21T07:35:36.673Z,100232.97
2023-04-21T07:38:03.916Z,100233.25
2023-04-21T07:40:31.598Z,100227.91
2023-04-21T07:42:58.597Z,100226.16
2023-04-21T07:45:26.416Z,100224.84
2023-04-21T07:47:53.653Z,100213.94
2023-04-21T07:50:21.057Z,100229.84
2023-04-21T07:52:48.287Z,100226.88
2023-04-21T07:55:15.369Z,100226.03
2023-04-21T07:57:42.448Z,100214.56
2023-04-21T08:00:10.789Z,100226.91
2023-04-21T08:02:40.669Z,100223.09
2023-04-21T08:05:08.256Z,100230.44
2023-04-21T08:07:35.503Z,100231.22
2023-04-21T08:10:02.980Z,100232.69
2023-04-21T08:12:30.055Z,100241.72
2023-04-21T08:14:56.998Z,100245.22
2023-04-21T08:17:24.067Z,100248.81
2023-04-21T08:19:51.458Z,100255.22
2023-04-21T08:22:18.435Z,100251.97
2023-04-21T08:24:45.645Z,100248.28
2023-04-21T08:27:12.607Z,100253.47
2023-04-21T08:29:39.593Z,100249.31
2023-04-21T08:32:06.788Z,100246.44
2023-04-21T08:34:35.114Z,100251.13
2023-04-21T08:37:02.173Z,100246.28
2023-04-21T08:39:29.631Z,100248.16
2023-04-21T08:44:26.438Z,100243.72
2023-04-21T08:46:56.066Z,100242.25
2023-04-21T08:49:24.546Z,100241.06
2023-04-21T08:51:51.546Z,100246.88
2023-04-21T08:54:18.577Z,100241.06
2023-04-21T08:56:45.717Z,100247.66
2023-04-21T08:59:12.670Z,100237.66
2023-04-21T09:02:08.919Z,100241.06
2023-04-21T09:04:38.967Z,100243.75
2023-04-21T09:07:06.325Z,100238.44
2023-04-21T09:09:33.369Z,100243.53
2023-04-21T09:12:00.421Z,100239.59
2023-04-21T09:14:34.211Z,100230.91
2023-04-21T09:17:03.333Z,100241.78
2023-04-21T09:19:33.622Z,100230.34
2023-04-21T09:22:01.734Z,100230.44
2023-04-21T09:24:28.895Z,100217.09
2023-04-21T09:26:56.077Z,100217.31
2023-04-21T09:29:26.582Z,100210.19
2023-04-21T09:31:53.623Z,100221.13
2023-04-21T09:34:25.918Z,100213.09
2023-04-21T09:37:03.729Z,100217.03
2023-04-21T09:39:45.698Z,100218.09
2023-04-21T09:42:19.716Z,100222.13
2023-04-21T09:44:53.198Z,100222.50
2023-04-21T09:47:24.290Z,100211.59
2023-04-21T09:49:55.278Z,100220.53
2023-04-21T09:52:24.068Z,100216.34
2023-04-21T09:54:57.411Z,100219.97
2023-04-21T09:57:30.387Z,100200.78
2023-04-21T10:00:05.365Z,100204.75
2023-04-21T10:02:36.122Z,100202.22
2023-04-21T10:05:07.245Z,100203.09
2023-04-21T10:07:34.436Z,100199.38
2023-04-21T10:10:02.323Z,100215.50
2023-04-21T10:12:29.944Z,100216.53
2023-04-21T10:14:57.300Z,100216.59
2023-04-21T10:17:26.729Z,100214.97
2023-04-21T10:19:57.455Z,100214.78
2023-04-21T10:22:28.869Z,100224.25
2023-04-21T10:24:57.732Z,100214.81
2023-04-21T10:27:37.709Z,100216.03
2023-04-21T10:30:34.148Z,100216.16
2023-04-21T10:33:06.110Z,100215.19
2023-04-21T10:36:00.068Z,100210.41
2023-04-21T10:38:41.920Z,100206.31
2023-04-21T10:41:28.274Z,100199.66
2023-04-21T10:44:01.729Z,100199.44
2023-04-21T10:46:36.321Z,100197.81
2023-04-21T10:49:07.352Z,100188.66
2023-04-21T10:52:03.485Z,100189.72
2023-04-21T10:54:33.903Z,100199.25
2023-04-21T10:57:01.702Z,100203.75
2023-04-21T10:59:28.982Z,100187.28
2023-04-21T11:01:56.126Z,100193.00
2023-04-21T11:04:24.219Z,100210.75
2023-04-21T11:07:19.023Z,100216.75
2023-04-21T11:09:48.541Z,100207.56
2023-04-21T11:12:20.124Z,100206.97
2023-04-21T11:14:50.650Z,100209.38
2023-04-21T11:17:19.858Z,100215.44
2023-04-21T11:19:55.623Z,100201.44
2023-04-21T11:22:26.479Z,100193.59
2023-04-21T11:24:55.556Z,100201.88
2023-04-21T11:27:23.583Z,100193.94
2023-04-21T11:29:51.394Z,100192.50
2023-04-21T11:32:18.802Z,100177.69
2023-04-21T11:34:46.436Z,100173.44
2023-04-21T11:37:24.123Z,100167.84
2023-04-21T11:39:57.754Z,100191.72
2023-04-21T11:42:25.037Z,100170.72
2023-04-21T11:44:55.101Z,100181.72
2023-04-21T11:47:27.715Z,100185.78
2023-04-21T11:49:59.675Z,100166.81
2023-04-21T11:52:27.700Z,100177.91
2023-04-21T11:54:58.236Z,100187.03
2023-04-21T11:57:26.603Z,100189.41
2023-04-21T11:59:53.869Z,100189.34
2023-04-21T12:02:28.757Z,100184.03
2023-04-21T12:04:59.231Z,100201.72
2023-04-21T12:07:26.900Z,100184.16
2023-04-21T12:09:54.339Z,100186.94
2023-04-21T12:12:23.201Z,100195.56
2023-04-21T12:14:51.795Z,100175.09
2023-04-21T12:17:19.413Z,100177.53
2023-04-21T12:19:46.517Z,100175.78
2023-04-21T12:22:16.161Z,100190.84
2023-04-21T12:24:43.733Z,100179.78
2023-04-21T12:27:11.385Z,100185.56
2023-04-21T12:29:39.207Z,100187.03
2023-04-21T12:32:06.965Z,100190.47
2023-04-21T12:34:34.783Z,100183.34
2023-04-21T12:37:02.476Z,100161.84
2023-04-21T12:39:30.540Z,100171.19
2023-04-21T12:41:58.008Z,100164.88
2023-04-21T12:44:26.034Z,100177.97
2023-04-21T12:46:54.266Z,100173.50
2023-04-21T12:49:21.328Z,100181.69
2023-04-21T12:51:49.289Z,100177.03
2023-04-21T12:54:16.330Z,100163.00
2023-04-21T12:56:43.860Z,100171.25
2023-04-21T12:59:11.670Z,100190.97
2023-04-21T13:01:40.712Z,100185.19
2023-04-21T13:04:08.113Z,100190.66
2023-04-21T13:06:35.432Z,100206.88
2023-04-21T13:09:03.288Z,100185.19
2023-04-21T13:11:30.451Z,100185.88
2023-04-21T13:13:58.256Z,100199.53
2023-04-21T13:16:26.768Z,100195.41
2023-04-21T13:18:55.543Z,100194.91
2023-04-21T13:21:22.487Z,100176.56
2023-04-21T13:23:49.491Z,100189.34
2023-04-21T13:26:16.573Z,100196.75
2023-04-21T13:28:43.729Z,100194.94
2023-04-21T13:31:10.741Z,100199.28
2023-04-21T13:33:37.775Z,100182.84
2023-04-21T13:36:04.953Z,100205.50
2023-04-21T13:38:32.552Z,100209.34
2023-04-21T13:40:59.719Z,100215.75
2023-04-21T13:43:26.780Z,100222.72
2023-04-21T13:45:54.016Z,100229.09
2023-04-21T13:48:22.138Z,100214.72
2023-04-21T13:50:49.304Z,100233.97
2023-04-21T13:53:17.584Z,100212.00
2023-04-21T13:55:45.793Z,100206.47
2023-04-21T13:58:14.699Z,100230.47
2023-04-21T14:00:41.816Z,100221.59
2023-04-21T14:03:10.006Z,100223.50
2023-04-21T14:05:37.369Z,100204.97
2023-04-21T14:08:04.634Z,100223.22
2023-04-21T14:10:31.662Z,100215.94
2023-04-21T14:12:58.705Z,100203.13
2023-04-21T14:15:26.433Z,100210.38
2023-04-21T14:17:53.780Z,100212.78
2023-04-21T14:20:20.973Z,100202.72
2023-04-21T14:22:48.293Z,100217.00
2023-04-21T14:25:15.425Z,100226.22
2023-04-21T14:27:42.993Z,100222.72
2023-04-21T14:30:10.737Z,100231.06
2023-04-21T14:32:37.968Z,100225.13
2023-04-21T14:35:05.825Z,100232.94
2023-04-21T14:37:33.324Z,100220.31
2023-04-21T14:40:01.113Z,100232.94
2023-04-21T14:42:28.191Z,100234.91
2023-04-21T14:44:55.346Z,100237.78
2023-04-21T14:47:22.632Z,100231.16
2023-04-21T14:49:55.036Z,100237.81
2023-04-21T14:52:24.814Z,100237.22
2023-04-21T14:54:51.871Z,100223.56
2023-04-21T14:57:20.959Z,100230.09
2023-04-21T14:59:52.146Z,100232.59
2023-04-21T15:02:22.759Z,100240.88
2023-04-21T15:04:50.233Z,100242.31
2023-04-21T15:07:22.899Z,100235.19
2023-04-21T15:09:51.613Z,100243.97
2023-04-21T15:12:18.704Z,100251.81
2023-04-21T15:14:45.840Z,100245.88
2023-04-21T15:17:12.863Z,100244.44
2023-04-21T15:19:39.851Z,100253.53
2023-04-21T15:22:07.093Z,100243.50
2023-04-21T15:24:34.245Z,100234.81
2023-04-21T15:27:02.529Z,100236.13
2023-04-21T15:29:29.615Z,100241.22
2023-04-21T15:31:56.783Z,100236.50
2023-04-21T15:34:23.776Z,100232.00
2023-04-21T15:36:50.980Z,100241.69
2023-04-21T15:39:18.032Z,100239.50
2023-04-21T15:41:45.072Z,100221.44
2023-04-21T15:44:12.090Z,100212.50
2023-04-21T15:46:39.182Z,100219.97
2023-04-21T15:49:06.414Z,100216.81
2023-04-21T15:51:35.118Z,100222.13
2023-04-21T15:54:02.239Z,100220.47
2023-04-21T15:56:29.295Z,100220.25
2023-04-21T15:58:57.189Z,100213.31
2023-04-21T16:01:24.910Z,100212.00
2023-04-21T16:03:52.466Z,100222.09
2023-04-21T16:06:21.498Z,100228.69
2023-04-21T16:08:48.627Z,100228.56
2023-04-21T16:11:15.829Z,100229.50
2023-04-21T16:13:42.917Z,100228.75
2023-04-21T16:16:10.065Z,100225.38
2023-04-21T16:18:37.131Z,100223.34
2023-04-21T16:21:04.603Z,100233.47
2023-04-21T16:23:31.750Z,100235.56
2023-04-21T16:25:58.923Z,100233.38
2023-04-21T16:28:25.912Z,100235.41
2023-04-21T16:30:53.035Z,100239.56
2023-04-21T16:33:19.999Z,100240.50
2023-04-21T16:35:47.091Z,100248.13
2023-04-21T16:38:14.291Z,100246.72
2023-04-21T16:40:41.476Z,100257.22
2023-04-21T16:43:08.489Z,100249.09
2023-04-21T16:45:35.827Z,100252.84
2023-04-21T16:48:03.050Z,100260.69
2023-04-21T16:50:30.302Z,100259.41
2023-04-21T16:52:57.594Z,100268.00
2023-04-21T16:55:24.628Z,100265.53
2023-04-21T16:57:51.853Z,100266.75
2023-04-21T17:00:19.157Z,100262.19
2023-04-21T17:02:46.432Z,100274.69
2023-04-21T17:05:15.827Z,100273.66
2023-04-21T17:07:43.370Z,100271.47
2023-04-21T17:10:10.687Z,100279.44
2023-04-21T17:12:37.823Z,100276.53
2023-04-21T17:15:05.720Z,100277.63
2023-04-21T17:17:42.457Z,100289.66
2023-04-21T17:20:12.215Z,100279.88
2023-04-21T17:22:40.127Z,100288.31
2023-04-21T17:25:08.192Z,100289.16
2023-04-21T17:27:36.425Z,100297.72
2023-04-21T17:30:07.441Z,100307.41
2023-04-21T17:32:34.662Z,100306.84
2023-04-21T17:35:02.439Z,100299.97
2023-04-21T17:37:30.468Z,100310.72
2023-04-21T17:39:59.797Z,100302.47
2023-04-21T17:42:29.362Z,100306.50
2023-04-21T17:44:56.325Z,100311.41
2023-04-21T17:47:23.537Z,100309.03
2023-04-21T17:49:50.541Z,100322.47
2023-04-21T17:52:17.605Z,100327.97
2023-04-21T17:54:45.708Z,100333.91
2023-04-21T17:57:12.772Z,100333.78
2023-04-21T17:59:40.061Z,100329.94
2023-04-21T18:02:07.754Z,100326.09
2023-04-21T18:04:35.250Z,100326.38
2023-04-21T18:07:03.481Z,100323.25
2023-04-21T18:09:30.590Z,100318.75
2023-04-21T18:11:58.524Z,100327.88
2023-04-21T18:14:25.994Z,100332.16
2023-04-21T18:16:53.223Z,100322.22
2023-04-21T18:19:20.398Z,100325.50
2023-04-21T18:21:47.486Z,100325.69
2023-04-21T18:24:15.140Z,100324.78
2023-04-21T18:26:42.282Z,100322.91
2023-04-21T18:29:09.390Z,100333.72
2023-04-21T18:31:36.746Z,100329.81
2023-04-21T18:34:03.941Z,100321.56
2023-04-21T18:36:33.750Z,100320.88
2023-04-21T18:39:01.533Z,100325.66
2023-04-21T18:41:28.666Z,100332.84
2023-04-21T18:43:55.772Z,100333.66
2023-04-21T18:46:22.876Z,100334.41
2023-04-21T18:48:50.099Z,100327.06
2023-04-21T18:51:17.270Z,100326.69
2023-04-21T18:53:46.336Z,100329.28
2023-04-21T18:56:13.557Z,100320.34
2023-04-21T18:58:40.633Z,100321.13
2023-04-21T19:01:08.216Z,100322.66
2023-04-21T19:03:35.456Z,100321.38
2023-04-21T19:06:02.668Z,100311.44
2023-04-21T19:08:41.263Z,100304.31
2023-04-21T19:11:11.820Z,100309.09
2023-04-21T19:13:39.191Z,100310.56
2023-04-21T19:16:06.428Z,100320.53
2023-04-21T19:18:33.532Z,100320.41
2023-04-21T19:21:00.527Z,100331.56
2023-04-21T19:23:27.479Z,100334.22
2023-04-21T19:25:57.559Z,100332.69
2023-04-21T19:28:24.613Z,100339.38
2023-04-21T19:30:51.590Z,100335.41
2023-04-21T19:33:18.627Z,100335.34
2023-04-21T19:35:46.256Z,100336.22
2023-04-21T19:38:13.744Z,100335.13
2023-04-21T19:40:44.429Z,100344.59
2023-04-21T19:43:11.719Z,100340.91
2023-04-21T19:45:38.828Z,100339.50
2023-04-21T19:48:07.526Z,100338.72
2023-04-21T19:50:35.937Z,100344.00
2023-04-21T19:53:03.667Z,100339.13
2023-04-21T19:55:31.523Z,100348.13
2023-04-21T19:57:58.565Z,100356.41
2023-04-21T20:00:25.886Z,100356.59
2023-04-21T20:02:53.131Z,100360.16
2023-04-21T20:05:20.481Z,100354.50
2023-04-21T20:07:47.507Z,100352.44
2023-04-21T20:10:14.750Z,100355.25
2023-04-21T20:12:41.803Z,100361.13
2023-04-21T20:15:09.448Z,100374.75
2023-04-21T20:17:37.073Z,100368.56
2023-04-21T20:20:05.989Z,100371.69
2023-04-21T20:22:33.070Z,100372.34
2023-04-21T20:25:00.142Z,100376.13
2023-04-21T20:27:27.443Z,100376.06
2023-04-21T20:29:54.507Z,100373.31
2023-04-21T20:32:21.484Z,100371.34
2023-04-21T20:34:48.493Z,100383.63
2023-04-21T20:37:16.294Z,100387.16
2023-04-21T20:39:43.320Z,100387.06
2023-04-21T20:42:13.614Z,100391.00
2023-04-21T20:44:42.803Z,100385.00
2023-04-21T20:47:11.235Z,100383.63
2023-04-21T20:49:40.044Z,100384.44
2023-04-21T20:52:07.284Z,100386.13
2023-04-21T20:54:35.015Z,100392.84
2023-04-21T20:57:02.476Z,100395.53
2023-04-21T20:59:29.851Z,100397.84
2023-04-21T21:01:56.858Z,100397.25
2023-04-21T21:04:24.071Z,100402.75
2023-04-21T21:06:51.246Z,100400.16
2023-04-21T21:09:19.173Z,100395.34
2023-04-21T21:11:46.471Z,100394.16
2023-04-21T21:14:13.571Z,100398.38
2023-04-21T21:16:40.785Z,100402.69
2023-04-21T21:19:07.872Z,100404.28
2023-04-21T21:21:34.878Z,100411.88
2023-04-21T21:24:01.956Z,100411.88
2023-04-21T21:26:29.389Z,100414.91
2023-04-21T21:28:56.894Z,100409.72
2023-04-21T21:31:25.611Z,100422.50
2023-04-21T21:33:52.806Z,100417.84
2023-04-21T21:36:19.993Z,100422.13
2023-04-21T21:38:46.998Z,100418.97
2023-04-21T21:41:14.830Z,100411.78
2023-04-21T21:43:41.782Z,100418.28
2023-04-21T21:46:09.234Z,100421.31
2023-04-21T21:48:36.397Z,100419.38
2023-04-21T21:51:05.408Z,100423.13
2023-04-21T21:53:32.924Z,100423.19
2023-04-21T21:56:00.528Z,100425.66
2023-04-21T21:58:27.701Z,100417.16
2023-04-21T22:00:55.095Z,100425.09
2023-04-21T22:03:22.452Z,100424.91
2023-04-21T22:05:49.525Z,100421.63
2023-04-21T22:08:16.572Z,100427.91
2023-04-21T22:10:43.824Z,100432.31
2023-04-21T22:13:11.362Z,100430.50
2023-04-21T22:15:38.966Z,100432.47
2023-04-21T22:18:08.208Z,100434.94
2023-04-21T22:20:35.998Z,100420.34
2023-04-21T22:23:04.213Z,100426.81
2023-04-21T22:25:31.343Z,100426.75
2023-04-21T22:27:58.341Z,100421.22
2023-04-21T22:30:25.901Z,100425.72
2023-04-21T22:32:53.132Z,100417.72
2023-04-21T22:35:20.484Z,100424.22
2023-04-21T22:37:47.561Z,100423.22
2023-04-21T22:40:14.579Z,100426.81
2023-04-21T22:42:42.132Z,100425.50
2023-04-21T22:45:09.575Z,100420.25
2023-04-21T22:47:36.697Z,100422.72
2023-04-21T22:50:04.518Z,100425.25
2023-04-21T22:52:31.669Z,100413.88
2023-04-21T22:54:58.729Z,100419.28
2023-04-21T22:57:25.867Z,100416.50
2023-04-21T22:59:53.093Z,100417.38
2023-04-21T23:02:20.148Z,100419.06
2023-04-21T23:04:47.217Z,100421.69
2023-04-21T23:07:14.204Z,100419.16
2023-04-21T23:09:41.408Z,100418.19
2023-04-21T23:12:08.611Z,100421.28
2023-04-21T23:14:35.706Z,100426.28
2023-04-21T23:17:02.821Z,100415.03
2023-04-21T23:19:29.838Z,100421.88
2023-04-21T23:21:56.861Z,100417.63
2023-04-21T23:24:23.814Z,100425.38
2023-04-21T23:26:50.823Z,100422.94
2023-04-21T23:29:18.625Z,100422.81
2023-04-21T23:31:45.762Z,100420.66
2023-04-21T23:34:12.905Z,100424.16
2023-04-21T23:36:39.852Z,100412.94
2023-04-21T23:39:06.865Z,100422.66
2023-04-21T23:41:34.152Z,100426.31
2023-04-21T23:44:01.172Z,100419.34
2023-04-21T23:46:28.375Z,100412.69
2023-04-21T23:48:55.369Z,100413.22
2023-04-21T23:51:22.564Z,100423.84
2023-04-21T23:53:49.673Z,100426.75
2023-04-21T23:56:17.004Z,100428.13
2023-04-21T23:58:43.974Z,100424.66
